sensor_id;sensor_type;location;lat;lon;timestamp;pressure;altitude;pressure_sealevel;temperature;humidity
71970;BME280;59838;52.152;5.436;2022-07-18T00:02:06;102583.81;;;14.54;74.08
71970;BME280;59838;52.152;5.436;2022-07-18T00:04:33;102576.94;;;14.53;74.15
71970;BME280;59838;52.152;5.436;2022-07-18T00:06:59;102584.94;;;14.51;74.70
71970;BME280;59838;52.152;5.436;2022-07-18T00:09:26;102580.72;;;14.50;74.62
71970;BME280;59838;52.152;5.436;2022-07-18T00:12:00;102573.84;;;14.49;74.72
71970;BME280;59838;52.152;5.436;2022-07-18T00:14:27;102585.31;;;14.48;74.87
71970;BME280;59838;52.152;5.436;2022-07-18T00:16:53;102575.34;;;14.43;74.73
71970;BME280;59838;52.152;5.436;2022-07-18T00:19:20;102576.63;;;14.39;74.69
71970;BME280;59838;52.152;5.436;2022-07-18T00:21:46;102572.72;;;14.35;74.08
71970;BME280;59838;52.152;5.436;2022-07-18T00:24:12;102578.78;;;14.27;74.38
71970;BME280;59838;52.152;5.436;2022-07-18T00:26:39;102573.22;;;14.22;74.50
71970;BME280;59838;52.152;5.436;2022-07-18T00:29:06;102571.09;;;14.18;74.51
71970;BME280;59838;52.152;5.436;2022-07-18T00:31:32;102561.28;;;14.12;74.69
71970;BME280;59838;52.152;5.436;2022-07-18T00:33:59;102568.50;;;14.10;74.93
71970;BME280;59838;52.152;5.436;2022-07-18T00:36:27;102573.88;;;14.08;75.57
71970;BME280;59838;52.152;5.436;2022-07-18T00:38:54;102571.41;;;14.06;75.08
71970;BME280;59838;52.152;5.436;2022-07-18T00:41:21;102559.31;;;14.05;75.16
71970;BME280;59838;52.152;5.436;2022-07-18T00:43:48;102559.66;;;14.02;75.45
71970;BME280;59838;52.152;5.436;2022-07-18T00:46:15;102565.03;;;14.01;75.31
71970;BME280;59838;52.152;5.436;2022-07-18T00:48:42;102565.56;;;13.96;75.21
71970;BME280;59838;52.152;5.436;2022-07-18T00:51:09;102562.09;;;13.87;75.65
71970;BME280;59838;52.152;5.436;2022-07-18T00:53:36;102560.97;;;13.82;75.31
71970;BME280;59838;52.152;5.436;2022-07-18T00:56:03;102552.75;;;13.77;76.10
71970;BME280;59838;52.152;5.436;2022-07-18T00:58:31;102550.81;;;13.70;76.12
71970;BME280;59838;52.152;5.436;2022-07-18T01:00:57;102556.84;;;13.63;76.14
71970;BME280;59838;52.152;5.436;2022-07-18T01:03:50;102552.22;;;13.48;77.94
71970;BME280;59838;52.152;5.436;2022-07-18T01:06:17;102550.59;;;13.47;78.12
71970;BME280;59838;52.152;5.436;2022-07-18T01:08:43;102558.72;;;13.36;78.72
71970;BME280;59838;52.152;5.436;2022-07-18T01:11:10;102561.47;;;13.34;78.85
71970;BME280;59838;52.152;5.436;2022-07-18T01:13:37;102559.72;;;13.35;78.97
71970;BME280;59838;52.152;5.436;2022-07-18T01:16:05;102551.88;;;13.35;78.60
71970;BME280;59838;52.152;5.436;2022-07-18T01:18:32;102557.09;;;13.35;78.86
71970;BME280;59838;52.152;5.436;2022-07-18T01:20:59;102557.38;;;13.32;78.73
71970;BME280;59838;52.152;5.436;2022-07-18T01:23:25;102550.66;;;13.29;78.80
71970;BME280;59838;52.152;5.436;2022-07-18T01:25:53;102547.41;;;13.27;79.03
71970;BME280;59838;52.152;5.436;2022-07-18T01:28:20;102549.38;;;13.25;79.16
71970;BME280;59838;52.152;5.436;2022-07-18T01:30:46;102545.44;;;13.21;79.03
71970;BME280;59838;52.152;5.436;2022-07-18T01:33:13;102549.19;;;13.19;78.78
71970;BME280;59838;52.152;5.436;2022-07-18T01:35:39;102553.56;;;13.18;78.60
71970;BME280;59838;52.152;5.436;2022-07-18T01:38:06;102551.44;;;13.13;78.32
71970;BME280;59838;52.152;5.436;2022-07-18T01:40:32;102553.53;;;13.10;78.59
71970;BME280;59838;52.152;5.436;2022-07-18T01:42:59;102551.25;;;13.07;79.08
71970;BME280;59838;52.152;5.436;2022-07-18T01:45:25;102549.63;;;13.06;78.57
71970;BME280;59838;52.152;5.436;2022-07-18T01:47:52;102540.78;;;12.98;78.78
71970;BME280;59838;52.152;5.436;2022-07-18T01:50:18;102539.94;;;12.90;79.16
71970;BME280;59838;52.152;5.436;2022-07-18T01:52:45;102532.09;;;12.90;79.31
71970;BME280;59838;52.152;5.436;2022-07-18T01:55:11;102529.66;;;12.88;79.31
71970;BME280;59838;52.152;5.436;2022-07-18T01:57:38;102530.31;;;12.90;79.29
71970;BME280;59838;52.152;5.436;2022-07-18T02:00:07;102527.03;;;12.88;79.00
71970;BME280;59838;52.152;5.436;2022-07-18T02:02:34;102528.00;;;12.87;79.46
71970;BME280;59838;52.152;5.436;2022-07-18T02:05:01;102538.91;;;12.83;79.92
71970;BME280;59838;52.152;5.436;2022-07-18T02:07:32;102543.63;;;12.79;80.29
71970;BME280;59838;52.152;5.436;2022-07-18T02:10:00;102538.69;;;12.76;79.65
71970;BME280;59838;52.152;5.436;2022-07-18T02:12:27;102539.84;;;12.73;79.12
71970;BME280;59838;52.152;5.436;2022-07-18T02:14:53;102533.94;;;12.71;79.48
71970;BME280;59838;52.152;5.436;2022-07-18T02:17:20;102527.28;;;12.69;79.53
71970;BME280;59838;52.152;5.436;2022-07-18T02:19:47;102523.47;;;12.63;79.79
71970;BME280;59838;52.152;5.436;2022-07-18T02:22:13;102522.31;;;12.57;79.66
71970;BME280;59838;52.152;5.436;2022-07-18T02:24:40;102518.38;;;12.53;79.87
71970;BME280;59838;52.152;5.436;2022-07-18T02:27:07;102509.88;;;12.51;79.95
71970;BME280;59838;52.152;5.436;2022-07-18T02:29:40;102514.09;;;12.44;80.29
71970;BME280;59838;52.152;5.436;2022-07-18T02:32:14;102507.91;;;12.45;80.12
71970;BME280;59838;52.152;5.436;2022-07-18T02:34:40;102505.44;;;12.43;80.14
71970;BME280;59838;52.152;5.436;2022-07-18T02:37:07;102507.19;;;12.35;80.35
71970;BME280;59838;52.152;5.436;2022-07-18T02:39:34;102507.34;;;12.33;80.36
71970;BME280;59838;52.152;5.436;2022-07-18T02:42:00;102512.84;;;12.30;81.22
71970;BME280;59838;52.152;5.436;2022-07-18T02:44:27;102512.03;;;12.30;81.18
71970;BME280;59838;52.152;5.436;2022-07-18T02:46:53;102513.16;;;12.27;81.31
71970;BME280;59838;52.152;5.436;2022-07-18T02:49:20;102519.31;;;12.26;81.26
71970;BME280;59838;52.152;5.436;2022-07-18T02:52:04;102513.31;;;12.25;81.20
71970;BME280;59838;52.152;5.436;2022-07-18T02:54:33;102518.53;;;12.25;81.31
71970;BME280;59838;52.152;5.436;2022-07-18T02:57:00;102524.88;;;12.23;80.99
71970;BME280;59838;52.152;5.436;2022-07-18T02:59:27;102515.56;;;12.20;81.41
71970;BME280;59838;52.152;5.436;2022-07-18T03:01:55;102510.50;;;12.19;81.27
71970;BME280;59838;52.152;5.436;2022-07-18T03:04:21;102509.84;;;12.17;81.21
71970;BME280;59838;52.152;5.436;2022-07-18T03:06:49;102519.41;;;12.16;81.22
71970;BME280;59838;52.152;5.436;2022-07-18T03:09:16;102505.72;;;12.14;81.12
71970;BME280;59838;52.152;5.436;2022-07-18T03:11:50;102505.06;;;12.12;81.60
71970;BME280;59838;52.152;5.436;2022-07-18T03:14:17;102513.50;;;12.06;82.11
71970;BME280;59838;52.152;5.436;2022-07-18T03:16:43;102509.25;;;12.05;82.14
71970;BME280;59838;52.152;5.436;2022-07-18T03:19:10;102508.06;;;11.99;82.60
71970;BME280;59838;52.152;5.436;2022-07-18T03:21:36;102505.25;;;11.93;82.69
71970;BME280;59838;52.152;5.436;2022-07-18T03:24:03;102501.66;;;11.94;82.82
71970;BME280;59838;52.152;5.436;2022-07-18T03:26:30;102490.94;;;11.97;82.87
71970;BME280;59838;52.152;5.436;2022-07-18T03:28:57;102489.03;;;11.99;82.77
71970;BME280;59838;52.152;5.436;2022-07-18T03:31:23;102482.31;;;11.96;82.66
71970;BME280;59838;52.152;5.436;2022-07-18T03:33:50;102486.56;;;11.97;82.95
71970;BME280;59838;52.152;5.436;2022-07-18T03:36:17;102480.22;;;12.00;83.37
71970;BME280;59838;52.152;5.436;2022-07-18T03:38:43;102480.22;;;12.00;82.59
71970;BME280;59838;52.152;5.436;2022-07-18T03:41:11;102474.22;;;11.99;82.04
71970;BME280;59838;52.152;5.436;2022-07-18T03:43:38;102472.72;;;11.97;82.00
71970;BME280;59838;52.152;5.436;2022-07-18T03:46:05;102472.06;;;11.95;81.84
71970;BME280;59838;52.152;5.436;2022-07-18T03:48:33;102469.28;;;11.96;82.15
71970;BME280;59838;52.152;5.436;2022-07-18T03:50:59;102466.53;;;11.98;82.47
71970;BME280;59838;52.152;5.436;2022-07-18T03:53:26;102465.84;;;12.14;82.17
71970;BME280;59838;52.152;5.436;2022-07-18T03:55:53;102464.69;;;12.34;81.93
71970;BME280;59838;52.152;5.436;2022-07-18T03:58:19;102457.41;;;12.46;81.21
71970;BME280;59838;52.152;5.436;2022-07-18T04:00:52;102451.84;;;12.41;81.00
71970;BME280;59838;52.152;5.436;2022-07-18T04:03:19;102454.41;;;12.33;81.21
71970;BME280;59838;52.152;5.436;2022-07-18T04:05:46;102456.31;;;12.31;81.10
71970;BME280;59838;52.152;5.436;2022-07-18T04:08:19;102448.66;;;12.29;81.01
71970;BME280;59838;52.152;5.436;2022-07-18T04:10:46;102456.31;;;12.31;81.17
71970;BME280;59838;52.152;5.436;2022-07-18T04:13:12;102444.13;;;12.31;81.37
71970;BME280;59838;52.152;5.436;2022-07-18T04:15:39;102442.53;;;12.38;81.74
71970;BME280;59838;52.152;5.436;2022-07-18T04:18:07;102443.22;;;12.49;81.71
71970;BME280;59838;52.152;5.436;2022-07-18T04:20:34;102441.19;;;12.60;81.31
71970;BME280;59838;52.152;5.436;2022-07-18T04:23:04;102439.78;;;12.83;81.21
71970;BME280;59838;52.152;5.436;2022-07-18T04:25:39;102441.44;;;13.59;80.19
71970;BME280;59838;52.152;5.436;2022-07-18T04:28:07;102436.50;;;14.70;76.48
71970;BME280;59838;52.152;5.436;2022-07-18T04:30:34;102430.03;;;15.58;72.63
71970;BME280;59838;52.152;5.436;2022-07-18T04:33:03;102434.03;;;16.52;69.57
71970;BME280;59838;52.152;5.436;2022-07-18T04:35:31;102427.66;;;17.55;66.05
71970;BME280;59838;52.152;5.436;2022-07-18T04:37:58;102429.03;;;18.98;61.82
71970;BME280;59838;52.152;5.436;2022-07-18T04:40:24;102427.19;;;20.19;56.25
71970;BME280;59838;52.152;5.436;2022-07-18T04:42:50;102430.00;;;20.76;54.52
71970;BME280;59838;52.152;5.436;2022-07-18T04:45:17;102426.56;;;21.07;53.33
71970;BME280;59838;52.152;5.436;2022-07-18T04:47:49;102423.41;;;21.49;52.93
71970;BME280;59838;52.152;5.436;2022-07-18T04:50:16;102418.91;;;21.75;51.51
71970;BME280;59838;52.152;5.436;2022-07-18T04:52:44;102421.56;;;22.49;49.68
71970;BME280;59838;52.152;5.436;2022-07-18T04:55:12;102420.75;;;23.32;47.92
71970;BME280;59838;52.152;5.436;2022-07-18T04:57:39;102422.97;;;23.95;45.82
71970;BME280;59838;52.152;5.436;2022-07-18T05:00:15;102427.25;;;24.65;44.79
71970;BME280;59838;52.152;5.436;2022-07-18T05:02:45;102430.19;;;25.14;44.37
71970;BME280;59838;52.152;5.436;2022-07-18T05:05:13;102432.00;;;24.22;45.53
71970;BME280;59838;52.152;5.436;2022-07-18T05:07:41;102439.31;;;22.90;46.71
71970;BME280;59838;52.152;5.436;2022-07-18T05:10:14;102448.44;;;21.21;52.76
71970;BME280;59838;52.152;5.436;2022-07-18T05:12:42;102436.78;;;19.73;59.20
71970;BME280;59838;52.152;5.436;2022-07-18T05:15:10;102445.25;;;19.02;61.03
71970;BME280;59838;52.152;5.436;2022-07-18T05:17:38;102444.13;;;18.69;61.38
71970;BME280;59838;52.152;5.436;2022-07-18T05:20:07;102434.94;;;18.45;62.29
71970;BME280;59838;52.152;5.436;2022-07-18T05:22:34;102440.41;;;18.50;62.67
71970;BME280;59838;52.152;5.436;2022-07-18T05:25:03;102442.28;;;18.63;61.48
71970;BME280;59838;52.152;5.436;2022-07-18T05:27:30;102443.41;;;18.40;60.23
71970;BME280;59838;52.152;5.436;2022-07-18T05:29:57;102441.53;;;18.82;60.31
71970;BME280;59838;52.152;5.436;2022-07-18T05:32:26;102441.00;;;20.73;56.35
71970;BME280;59838;52.152;5.436;2022-07-18T05:34:52;102431.44;;;22.23;51.65
71970;BME280;59838;52.152;5.436;2022-07-18T05:37:19;102425.72;;;24.40;45.87
71970;BME280;59838;52.152;5.436;2022-07-18T05:39:45;102425.72;;;25.93;42.70
71970;BME280;59838;52.152;5.436;2022-07-18T05:42:18;102418.13;;;27.11;38.39
71970;BME280;59838;52.152;5.436;2022-07-18T05:45:06;102411.50;;;28.19;35.92
71970;BME280;59838;52.152;5.436;2022-07-18T05:47:32;102415.34;;;28.59;35.08
71970;BME280;59838;52.152;5.436;2022-07-18T05:49:59;102418.25;;;29.14;33.84
71970;BME280;59838;52.152;5.436;2022-07-18T05:52:25;102416.31;;;29.51;33.37
71970;BME280;59838;52.152;5.436;2022-07-18T05:54:52;102401.72;;;29.93;32.09
71970;BME280;59838;52.152;5.436;2022-07-18T05:57:19;102405.81;;;30.25;31.19
71970;BME280;59838;52.152;5.436;2022-07-18T05:59:45;102398.31;;;30.67;30.47
71970;BME280;59838;52.152;5.436;2022-07-18T06:02:12;102396.88;;;31.09;30.13
71970;BME280;59838;52.152;5.436;2022-07-18T06:04:39;102396.97;;;31.23;30.16
71970;BME280;59838;52.152;5.436;2022-07-18T06:07:25;102393.63;;;30.77;30.62
71970;BME280;59838;52.152;5.436;2022-07-18T06:09:52;102393.22;;;29.81;31.91
71970;BME280;59838;52.152;5.436;2022-07-18T06:12:18;102396.34;;;28.92;33.82
71970;BME280;59838;52.152;5.436;2022-07-18T06:14:45;102393.84;;;28.18;34.96
71970;BME280;59838;52.152;5.436;2022-07-18T06:17:12;102392.34;;;28.63;34.78
71970;BME280;59838;52.152;5.436;2022-07-18T06:19:38;102391.53;;;29.20;34.70
71970;BME280;59838;52.152;5.436;2022-07-18T06:22:08;102387.00;;;30.40;32.00
71970;BME280;59838;52.152;5.436;2022-07-18T06:24:35;102383.59;;;31.17;31.33
71970;BME280;59838;52.152;5.436;2022-07-18T06:27:02;102383.25;;;31.92;30.59
71970;BME280;59838;52.152;5.436;2022-07-18T06:29:28;102391.66;;;32.04;30.23
71970;BME280;59838;52.152;5.436;2022-07-18T06:31:55;102384.84;;;31.74;30.59
71970;BME280;59838;52.152;5.436;2022-07-18T06:34:21;102390.13;;;31.60;30.17
71970;BME280;59838;52.152;5.436;2022-07-18T06:36:48;102390.69;;;32.19;30.26
71970;BME280;59838;52.152;5.436;2022-07-18T06:39:14;102389.97;;;32.46;29.30
71970;BME280;59838;52.152;5.436;2022-07-18T06:41:42;102397.41;;;32.54;28.92
71970;BME280;59838;52.152;5.436;2022-07-18T06:44:09;102388.00;;;32.52;28.22
71970;BME280;59838;52.152;5.436;2022-07-18T06:46:36;102395.38;;;32.79;28.42
71970;BME280;59838;52.152;5.436;2022-07-18T06:49:04;102396.53;;;33.20;28.68
71970;BME280;59838;52.152;5.436;2022-07-18T06:51:30;102396.31;;;33.72;26.86
71970;BME280;59838;52.152;5.436;2022-07-18T06:53:57;102390.97;;;34.17;26.52
71970;BME280;59838;52.152;5.436;2022-07-18T06:56:24;102392.28;;;33.69;26.39
71970;BME280;59838;52.152;5.436;2022-07-18T06:58:52;102386.94;;;33.41;27.58
71970;BME280;59838;52.152;5.436;2022-07-18T07:01:19;102389.63;;;33.55;27.52
71970;BME280;59838;52.152;5.436;2022-07-18T07:03:46;102391.41;;;33.74;27.08
71970;BME280;59838;52.152;5.436;2022-07-18T07:06:16;102383.06;;;33.98;27.13
71970;BME280;59838;52.152;5.436;2022-07-18T07:08:43;102385.69;;;33.89;27.69
71970;BME280;59838;52.152;5.436;2022-07-18T07:11:10;102388.84;;;33.41;27.20
71970;BME280;59838;52.152;5.436;2022-07-18T07:13:37;102374.00;;;32.36;29.49
71970;BME280;59838;52.152;5.436;2022-07-18T07:16:04;102366.78;;;33.11;28.93
71970;BME280;59838;52.152;5.436;2022-07-18T07:18:31;102373.47;;;33.92;26.98
71970;BME280;59838;52.152;5.436;2022-07-18T07:20:58;102373.19;;;33.93;27.15
71970;BME280;59838;52.152;5.436;2022-07-18T07:23:24;102376.16;;;33.13;28.83
71970;BME280;59838;52.152;5.436;2022-07-18T07:25:51;102380.53;;;32.82;29.89
71970;BME280;59838;52.152;5.436;2022-07-18T07:28:17;102380.66;;;33.60;28.32
71970;BME280;59838;52.152;5.436;2022-07-18T07:30:44;102371.22;;;34.07;27.84
71970;BME280;59838;52.152;5.436;2022-07-18T07:33:11;102367.94;;;34.33;27.00
71970;BME280;59838;52.152;5.436;2022-07-18T07:35:37;102365.06;;;34.30;27.60
71970;BME280;59838;52.152;5.436;2022-07-18T07:38:04;102371.47;;;33.97;27.72
71970;BME280;59838;52.152;5.436;2022-07-18T07:40:31;102370.81;;;34.37;27.20
71970;BME280;59838;52.152;5.436;2022-07-18T07:43:09;102367.31;;;34.59;27.20
71970;BME280;59838;52.152;5.436;2022-07-18T07:45:36;102380.56;;;34.47;26.57
71970;BME280;59838;52.152;5.436;2022-07-18T07:48:03;102382.47;;;33.87;28.08
71970;BME280;59838;52.152;5.436;2022-07-18T07:50:30;102388.72;;;33.60;27.21
71970;BME280;59838;52.152;5.436;2022-07-18T07:52:58;102383.13;;;33.84;27.69
71970;BME280;59838;52.152;5.436;2022-07-18T07:55:25;102370.13;;;33.86;28.36
71970;BME280;59838;52.152;5.436;2022-07-18T07:57:51;102376.31;;;33.86;28.29
71970;BME280;59838;52.152;5.436;2022-07-18T08:00:18;102380.00;;;33.91;29.23
71970;BME280;59838;52.152;5.436;2022-07-18T08:03:03;102378.38;;;33.89;28.98
71970;BME280;59838;52.152;5.436;2022-07-18T08:05:34;102374.16;;;33.75;27.10
71970;BME280;59838;52.152;5.436;2022-07-18T08:08:01;102369.06;;;33.59;26.57
71970;BME280;59838;52.152;5.436;2022-07-18T08:10:28;102359.69;;;33.57;28.24
71970;BME280;59838;52.152;5.436;2022-07-18T08:12:55;102356.13;;;33.06;28.25
71970;BME280;59838;52.152;5.436;2022-07-18T08:15:23;102364.28;;;32.02;28.43
71970;BME280;59838;52.152;5.436;2022-07-18T08:17:50;102354.69;;;31.58;30.58
71970;BME280;59838;52.152;5.436;2022-07-18T08:20:17;102356.63;;;31.28;29.59
71970;BME280;59838;52.152;5.436;2022-07-18T08:23:04;102344.31;;;30.73;30.93
71970;BME280;59838;52.152;5.436;2022-07-18T08:25:33;102350.81;;;30.38;31.66
71970;BME280;59838;52.152;5.436;2022-07-18T08:28:01;102347.56;;;30.41;31.47
71970;BME280;59838;52.152;5.436;2022-07-18T08:30:28;102349.75;;;30.29;31.26
71970;BME280;59838;52.152;5.436;2022-07-18T08:32:55;102347.59;;;30.31;32.11
71970;BME280;59838;52.152;5.436;2022-07-18T08:35:22;102351.47;;;30.14;31.85
71970;BME280;59838;52.152;5.436;2022-07-18T08:37:49;102350.16;;;30.12;33.14
71970;BME280;59838;52.152;5.436;2022-07-18T08:40:16;102350.56;;;29.89;31.83
71970;BME280;59838;52.152;5.436;2022-07-18T08:42:42;102349.78;;;29.89;32.46
71970;BME280;59838;52.152;5.436;2022-07-18T08:45:35;102349.72;;;29.94;32.13
71970;BME280;59838;52.152;5.436;2022-07-18T08:48:02;102348.88;;;30.04;33.39
71970;BME280;59838;52.152;5.436;2022-07-18T08:50:36;102350.75;;;30.03;33.10
71970;BME280;59838;52.152;5.436;2022-07-18T08:53:03;102352.28;;;30.15;32.84
71970;BME280;59838;52.152;5.436;2022-07-18T08:55:29;102354.84;;;30.30;32.97
71970;BME280;59838;52.152;5.436;2022-07-18T08:57:56;102354.28;;;30.68;33.10
71970;BME280;59838;52.152;5.436;2022-07-18T09:00:30;102354.00;;;30.98;31.47
71970;BME280;59838;52.152;5.436;2022-07-18T09:03:04;102351.97;;;31.14;30.72
71970;BME280;59838;52.152;5.436;2022-07-18T09:05:32;102353.50;;;31.21;31.63
71970;BME280;59838;52.152;5.436;2022-07-18T09:08:14;102355.06;;;31.03;30.68
71970;BME280;59838;52.152;5.436;2022-07-18T09:10:54;102356.06;;;31.07;32.56
71970;BME280;59838;52.152;5.436;2022-07-18T09:13:25;102354.50;;;30.76;29.68
71970;BME280;59838;52.152;5.436;2022-07-18T09:16:10;102360.81;;;30.61;31.62
71970;BME280;59838;52.152;5.436;2022-07-18T09:18:45;102349.34;;;30.51;29.37
71970;BME280;59838;52.152;5.436;2022-07-18T09:21:20;102352.41;;;30.34;31.27
71970;BME280;59838;52.152;5.436;2022-07-18T09:23:49;102352.41;;;29.94;32.56
71970;BME280;59838;52.152;5.436;2022-07-18T09:29:02;102354.50;;;29.42;32.62
71970;BME280;59838;52.152;5.436;2022-07-18T09:31:50;102355.59;;;29.36;33.30
71970;BME280;59838;52.152;5.436;2022-07-18T09:34:36;102352.69;;;29.17;34.23
71970;BME280;59838;52.152;5.436;2022-07-18T09:37:10;102345.19;;;29.14;34.53
71970;BME280;59838;52.152;5.436;2022-07-18T09:39:37;102343.63;;;29.08;34.19
71970;BME280;59838;52.152;5.436;2022-07-18T09:42:17;102343.59;;;29.13;35.22
71970;BME280;59838;52.152;5.436;2022-07-18T09:44:57;102347.13;;;28.98;36.63
71970;BME280;59838;52.152;5.436;2022-07-18T09:47:24;102339.97;;;28.57;39.01
71970;BME280;59838;52.152;5.436;2022-07-18T09:49:51;102348.16;;;28.20;36.47
71970;BME280;59838;52.152;5.436;2022-07-18T09:52:19;102343.91;;;28.14;39.70
71970;BME280;59838;52.152;5.436;2022-07-18T09:54:45;102348.69;;;28.01;37.41
71970;BME280;59838;52.152;5.436;2022-07-18T09:57:26;102332.88;;;27.89;38.19
71970;BME280;59838;52.152;5.436;2022-07-18T09:59:53;102334.47;;;27.85;39.35
71970;BME280;59838;52.152;5.436;2022-07-18T10:02:21;102329.72;;;28.18;39.17
71970;BME280;59838;52.152;5.436;2022-07-18T10:04:47;102330.31;;;28.51;37.30
71970;BME280;59838;52.152;5.436;2022-07-18T10:07:15;102327.09;;;28.85;36.28
71970;BME280;59838;52.152;5.436;2022-07-18T10:09:42;102327.03;;;29.11;35.26
71970;BME280;59838;52.152;5.436;2022-07-18T10:12:12;102326.22;;;29.05;35.37
71970;BME280;59838;52.152;5.436;2022-07-18T10:14:39;102319.94;;;29.51;33.03
71970;BME280;59838;52.152;5.436;2022-07-18T10:17:12;102322.59;;;29.51;35.33
71970;BME280;59838;52.152;5.436;2022-07-18T10:19:39;102320.44;;;29.58;34.45
71970;BME280;59838;52.152;5.436;2022-07-18T10:22:06;102326.56;;;29.64;34.75
71970;BME280;59838;52.152;5.436;2022-07-18T10:24:40;102324.75;;;29.49;33.04
71970;BME280;59838;52.152;5.436;2022-07-18T10:27:19;102321.91;;;29.85;35.16
71970;BME280;59838;52.152;5.436;2022-07-18T10:30:11;102318.38;;;29.95;33.04
71970;BME280;59838;52.152;5.436;2022-07-18T10:32:39;102321.41;;;29.83;33.83
71970;BME280;59838;52.152;5.436;2022-07-18T10:35:07;102323.50;;;29.91;32.54
71970;BME280;59838;52.152;5.436;2022-07-18T10:37:34;102316.66;;;30.09;34.24
71970;BME280;59838;52.152;5.436;2022-07-18T10:40:21;102323.97;;;30.03;33.76
71970;BME280;59838;52.152;5.436;2022-07-18T10:45:52;102317.38;;;30.84;30.24
71970;BME280;59838;52.152;5.436;2022-07-18T10:51:11;102306.25;;;30.71;33.09
71970;BME280;59838;52.152;5.436;2022-07-18T10:59:18;102310.06;;;31.19;31.65
71970;BME280;59838;52.152;5.436;2022-07-18T11:01:53;102310.06;;;30.65;33.02
71970;BME280;59838;52.152;5.436;2022-07-18T11:04:33;102311.25;;;31.07;33.30
71970;BME280;59838;52.152;5.436;2022-07-18T11:07:12;102307.16;;;31.58;30.89
71970;BME280;59838;52.152;5.436;2022-07-18T11:09:45;102314.63;;;31.80;27.87
71970;BME280;59838;52.152;5.436;2022-07-18T11:23:02;102295.78;;;32.65;27.48
71970;BME280;59838;52.152;5.436;2022-07-18T11:25:35;102287.72;;;32.65;26.00
71970;BME280;59838;52.152;5.436;2022-07-18T11:28:24;102289.72;;;32.73;27.56
71970;BME280;59838;52.152;5.436;2022-07-18T11:31:05;102283.22;;;32.88;25.91
71970;BME280;59838;52.152;5.436;2022-07-18T11:33:36;102280.03;;;32.58;25.32
71970;BME280;59838;52.152;5.436;2022-07-18T11:36:09;102279.28;;;32.06;26.57
71970;BME280;59838;52.152;5.436;2022-07-18T11:38:51;102280.41;;;32.52;27.96
71970;BME280;59838;52.152;5.436;2022-07-18T11:41:24;102283.78;;;32.57;26.22
71970;BME280;59838;52.152;5.436;2022-07-18T11:43:52;102276.88;;;32.23;27.74
71970;BME280;59838;52.152;5.436;2022-07-18T11:46:22;102275.97;;;32.14;27.27
71970;BME280;59838;52.152;5.436;2022-07-18T11:48:58;102276.50;;;32.44;25.88
71970;BME280;59838;52.152;5.436;2022-07-18T11:51:33;102271.03;;;32.49;27.41
71970;BME280;59838;52.152;5.436;2022-07-18T11:54:00;102265.47;;;32.46;26.69
71970;BME280;59838;52.152;5.436;2022-07-18T11:56:27;102269.91;;;32.69;25.40
71970;BME280;59838;52.152;5.436;2022-07-18T11:58:53;102266.69;;;32.95;26.71
71970;BME280;59838;52.152;5.436;2022-07-18T12:01:20;102265.28;;;33.11;27.21
71970;BME280;59838;52.152;5.436;2022-07-18T12:03:49;102262.38;;;33.36;26.00
71970;BME280;59838;52.152;5.436;2022-07-18T12:06:21;102254.53;;;33.48;25.88
71970;BME280;59838;52.152;5.436;2022-07-18T12:08:51;102260.75;;;33.48;24.84
71970;BME280;59838;52.152;5.436;2022-07-18T12:11:31;102248.69;;;33.32;24.65
71970;BME280;59838;52.152;5.436;2022-07-18T12:16:46;102251.59;;;33.36;26.36
71970;BME280;59838;52.152;5.436;2022-07-18T12:19:21;102241.78;;;33.40;24.22
71970;BME280;59838;52.152;5.436;2022-07-18T12:21:55;102244.34;;;33.45;26.12
71970;BME280;59838;52.152;5.436;2022-07-18T12:24:26;102242.56;;;33.04;25.43
71970;BME280;59838;52.152;5.436;2022-07-18T12:27:21;102242.25;;;33.05;26.02
71970;BME280;59838;52.152;5.436;2022-07-18T12:32:23;102235.78;;;33.43;24.67
71970;BME280;59838;52.152;5.436;2022-07-18T12:35:01;102236.41;;;33.40;27.36
71970;BME280;59838;52.152;5.436;2022-07-18T12:37:29;102231.63;;;33.37;24.45
71970;BME280;59838;52.152;5.436;2022-07-18T12:40:02;102234.19;;;33.19;25.37
71970;BME280;59838;52.152;5.436;2022-07-18T12:42:49;102226.13;;;33.42;24.48
71970;BME280;59838;52.152;5.436;2022-07-18T12:45:31;102233.84;;;33.57;24.62
71970;BME280;59838;52.152;5.436;2022-07-18T12:47:57;102227.41;;;33.81;24.44
71970;BME280;59838;52.152;5.436;2022-07-18T12:50:24;102226.22;;;33.73;24.23
71970;BME280;59838;52.152;5.436;2022-07-18T12:52:50;102221.00;;;33.54;23.87
71970;BME280;59838;52.152;5.436;2022-07-18T12:55:16;102218.44;;;33.72;24.53
71970;BME280;59838;52.152;5.436;2022-07-18T12:57:44;102221.38;;;33.11;25.08
71970;BME280;59838;52.152;5.436;2022-07-18T13:00:11;102216.63;;;33.44;26.04
71970;BME280;59838;52.152;5.436;2022-07-18T13:02:39;102206.00;;;33.84;25.93
71970;BME280;59838;52.152;5.436;2022-07-18T13:05:06;102200.88;;;34.05;23.65
71970;BME280;59838;52.152;5.436;2022-07-18T13:07:33;102202.81;;;33.82;25.57
71970;BME280;59838;52.152;5.436;2022-07-18T13:09:59;102198.16;;;34.28;26.88
71970;BME280;59838;52.152;5.436;2022-07-18T13:12:25;102200.09;;;34.36;24.30
71970;BME280;59838;52.152;5.436;2022-07-18T13:14:52;102196.88;;;34.03;25.42
71970;BME280;59838;52.152;5.436;2022-07-18T13:17:19;102196.28;;;34.37;22.77
71970;BME280;59838;52.152;5.436;2022-07-18T13:19:46;102181.25;;;34.54;21.25
71970;BME280;59838;52.152;5.436;2022-07-18T13:22:12;102190.75;;;34.42;21.69
71970;BME280;59838;52.152;5.436;2022-07-18T13:24:39;102186.34;;;34.64;24.00
71970;BME280;59838;52.152;5.436;2022-07-18T13:27:07;102191.13;;;34.67;22.67
71970;BME280;59838;52.152;5.436;2022-07-18T13:29:34;102179.69;;;34.21;22.37
71970;BME280;59838;52.152;5.436;2022-07-18T13:32:01;102184.66;;;34.28;24.74